createdAt,value
2018-12-25T00:00:53.245Z,1039.11320653
2018-12-25T00:02:03.498Z,1039.14707041
2018-12-25T00:03:13.783Z,1039.21479818
2018-12-25T00:04:24.004Z,1039.11320653
2018-12-25T00:05:34.279Z,1039.1809343
2018-12-25T00:06:44.427Z,1039.1809343
2018-12-25T00:07:55.796Z,1039.1809343
2018-12-25T00:09:06.005Z,1039.11320653
2018-12-25T00:10:16.133Z,1038.94388712
2018-12-25T00:11:26.408Z,1039.07934265
2018-12-25T00:12:36.745Z,1039.01161489
2018-12-25T00:13:46.892Z,1039.04547877
2018-12-25T00:14:57.010Z,1039.07934265
2018-12-25T00:16:07.242Z,1039.14707041
2018-12-25T00:17:17.518Z,1039.1809343
2018-12-25T00:18:27.757Z,1039.11320653
2018-12-25T00:19:38.041Z,1039.14707041
2018-12-25T00:20:48.186Z,1039.11320653
2018-12-25T00:21:58.335Z,1039.07934265
2018-12-25T00:23:08.572Z,1038.94388712
2018-12-25T00:24:18.786Z,1039.07934265
2018-12-25T00:25:28.977Z,1039.14707041
2018-12-25T00:26:39.135Z,1039.01161489
2018-12-25T00:27:49.382Z,1039.07934265
2018-12-25T00:28:59.698Z,1039.01161489
2018-12-25T00:30:09.921Z,1038.97775101
2018-12-25T00:31:20.147Z,1039.07934265
2018-12-25T00:32:30.409Z,1039.01161489
2018-12-25T00:33:40.789Z,1039.04547877
2018-12-25T00:34:51.078Z,1039.01161489
2018-12-25T00:36:01.464Z,1038.97775101
2018-12-25T00:37:11.721Z,1038.91002324
2018-12-25T00:38:22.015Z,1038.91002324
2018-12-25T00:39:32.418Z,1038.97775101
2018-12-25T00:40:42.670Z,1038.91002324
2018-12-25T00:41:53.004Z,1038.94388712
2018-12-25T00:43:03.291Z,1038.91002324
2018-12-25T00:44:13.495Z,1038.94388712
2018-12-25T00:45:25.155Z,1038.94388712
2018-12-25T00:45:35.682Z,1038.94388712
2018-12-25T00:45:46.325Z,1038.94388712
2018-12-25T00:45:57.007Z,1038.94388712
2018-12-25T00:46:08.094Z,1038.84229548
2018-12-25T00:46:20.072Z,1038.84229548
2018-12-25T00:46:33.472Z,1038.84229548
2018-12-25T00:46:50.271Z,1038.84229548
2018-12-25T00:47:13.316Z,1038.87615936
2018-12-25T00:47:49.073Z,1038.87615936
2018-12-25T00:48:50.472Z,1038.8084316
2018-12-25T00:50:00.685Z,1038.91002324
2018-12-25T00:51:10.987Z,1038.84229548
2018-12-25T00:52:21.390Z,1038.91002324
2018-12-25T00:53:31.745Z,1038.94388712
2018-12-25T00:54:41.951Z,1038.87615936
2018-12-25T00:55:52.327Z,1038.91002324
2018-12-25T00:57:02.500Z,1038.91002324
2018-12-25T00:58:12.578Z,1038.91002324
2018-12-25T00:59:22.977Z,1038.97775101
2018-12-25T01:00:33.386Z,1038.97775101
2018-12-25T01:01:43.680Z,1038.97775101
2018-12-25T01:02:53.976Z,1039.07934265
2018-12-25T01:04:04.117Z,1039.01161489
2018-12-25T01:05:14.416Z,1039.04547877
2018-12-25T01:06:24.667Z,1038.94388712
2018-12-25T01:07:34.844Z,1039.04547877
2018-12-25T01:08:45.079Z,1038.97775101
2018-12-25T01:09:55.408Z,1038.91002324
2018-12-25T01:11:05.662Z,1038.97775101
2018-12-25T01:12:15.844Z,1038.97775101
2018-12-25T01:13:26.120Z,1038.91002324
2018-12-25T01:14:36.330Z,1039.04547877
2018-12-25T01:15:46.555Z,1038.97775101
2018-12-25T01:16:56.746Z,1039.04547877
2018-12-25T01:18:07.130Z,1039.01161489
2018-12-25T01:19:25.541Z,1039.01161489
2018-12-25T01:19:36.119Z,1039.01161489
2018-12-25T01:19:46.673Z,1039.01161489
2018-12-25T01:19:57.292Z,1039.01161489
2018-12-25T01:20:08.302Z,1039.04547877
2018-12-25T01:20:20.049Z,1039.04547877
2018-12-25T01:20:33.425Z,1039.04547877
2018-12-25T01:20:49.989Z,1039.04547877
2018-12-25T01:21:13.034Z,1039.07934265
2018-12-25T01:21:48.796Z,1039.07934265
2018-12-25T01:22:50.198Z,1039.14707041
2018-12-25T01:24:00.506Z,1039.07934265
2018-12-25T01:25:10.836Z,1039.07934265
2018-12-25T01:26:21.019Z,1039.11320653
2018-12-25T01:27:31.795Z,1039.04547877
2018-12-25T01:28:41.988Z,1039.11320653
2018-12-25T01:29:52.110Z,1039.01161489
2018-12-25T01:31:02.412Z,1039.1809343
2018-12-25T01:32:12.719Z,1039.07934265
2018-12-25T01:33:22.996Z,1039.07934265
2018-12-25T01:34:33.192Z,1039.1809343
2018-12-25T01:35:43.506Z,1039.07934265
2018-12-25T01:36:53.783Z,1039.14707041
2018-12-25T01:38:04.044Z,1039.07934265
2018-12-25T01:39:14.248Z,1039.11320653
2018-12-25T01:40:24.467Z,1039.1809343
2018-12-25T01:41:34.870Z,1039.1809343
2018-12-25T01:42:45.321Z,1039.28252594
2018-12-25T01:43:55.450Z,1039.24866206
2018-12-25T01:45:05.774Z,1039.07934265
2018-12-25T01:46:16.040Z,1039.11320653
2018-12-25T01:47:26.336Z,1039.14707041
2018-12-25T01:48:36.498Z,1039.11320653
2018-12-25T01:49:46.633Z,1039.07934265
2018-12-25T01:50:56.918Z,1039.07934265
2018-12-25T01:52:07.337Z,1039.07934265
2018-12-25T01:53:17.678Z,1039.14707041
2018-12-25T01:54:28.033Z,1039.1809343
2018-12-25T01:55:38.331Z,1039.14707041
2018-12-25T01:56:48.477Z,1039.1809343
2018-12-25T01:57:59.199Z,1039.07934265
2018-12-25T01:59:09.387Z,1039.14707041
2018-12-25T02:00:19.583Z,1039.14707041
2018-12-25T02:01:29.833Z,1039.14707041
2018-12-25T02:02:40.021Z,1039.1809343
2018-12-25T02:03:50.250Z,1039.14707041
2018-12-25T02:05:00.414Z,1039.14707041
2018-12-25T02:06:10.625Z,1039.14707041
2018-12-25T02:07:20.806Z,1039.04547877
2018-12-25T02:08:31.150Z,1039.1809343
2018-12-25T02:09:41.630Z,1039.11320653
2018-12-25T02:10:52.062Z,1039.11320653
2018-12-25T02:12:02.435Z,1039.07934265
2018-12-25T02:13:12.647Z,1039.04547877
2018-12-25T02:14:22.914Z,1039.14707041
2018-12-25T02:15:33.199Z,1038.97775101
2018-12-25T02:16:43.372Z,1039.07934265
2018-12-25T02:17:53.544Z,1039.11320653
2018-12-25T02:19:03.884Z,1039.01161489
2018-12-25T02:20:14.042Z,1039.01161489
2018-12-25T02:21:24.375Z,1038.94388712
2018-12-25T02:22:34.516Z,1039.04547877
2018-12-25T02:23:44.736Z,1038.97775101
2018-12-25T02:24:55.015Z,1038.97775101
2018-12-25T02:26:05.163Z,1038.87615936
2018-12-25T02:27:15.463Z,1038.94388712
2018-12-25T02:28:26.154Z,1038.91002324
2018-12-25T02:29:36.421Z,1038.94388712
2018-12-25T02:30:46.857Z,1038.94388712
2018-12-25T02:31:56.968Z,1038.97775101
2018-12-25T02:33:07.290Z,1038.84229548
2018-12-25T02:34:17.474Z,1038.84229548
2018-12-25T02:35:27.752Z,1038.87615936
2018-12-25T02:36:38.126Z,1038.91002324
2018-12-25T02:37:48.310Z,1038.87615936
2018-12-25T02:38:58.652Z,1038.84229548
2018-12-25T02:40:08.956Z,1038.91002324
2018-12-25T02:41:19.231Z,1038.84229548
2018-12-25T02:42:29.435Z,1038.84229548
2018-12-25T02:43:39.597Z,1038.87615936
2018-12-25T02:44:49.836Z,1038.8084316
2018-12-25T02:46:00.111Z,1038.74070384
2018-12-25T02:47:10.589Z,1038.74070384
2018-12-25T02:48:20.849Z,1038.8084316
2018-12-25T02:49:31.011Z,1038.77456772
2018-12-25T02:50:41.458Z,1038.77456772
2018-12-25T02:51:51.660Z,1038.8084316
2018-12-25T02:53:02.191Z,1038.77456772
2018-12-25T02:54:12.467Z,1038.70683995
2018-12-25T02:55:22.778Z,1038.84229548
2018-12-25T02:56:33.048Z,1038.77456772
2018-12-25T02:57:43.357Z,1038.77456772
2018-12-25T02:58:53.587Z,1038.74070384
2018-12-25T03:00:03.925Z,1038.84229548
2018-12-25T03:01:14.212Z,1038.74070384
2018-12-25T03:02:24.462Z,1038.74070384
2018-12-25T03:03:34.606Z,1038.77456772
2018-12-25T03:04:44.814Z,1038.63911219
2018-12-25T03:05:55.142Z,1038.67297607
2018-12-25T03:07:05.322Z,1038.74070384
2018-12-25T03:08:15.497Z,1038.67297607
2018-12-25T03:09:26.051Z,1038.70683995
2018-12-25T03:10:36.332Z,1038.70683995
2018-12-25T03:11:46.560Z,1038.70683995
2018-12-25T03:12:56.765Z,1038.67297607
2018-12-25T03:14:06.977Z,1038.63911219
2018-12-25T03:15:17.225Z,1038.60524831
2018-12-25T03:16:27.542Z,1038.67297607
2018-12-25T03:17:37.807Z,1038.67297607
2018-12-25T03:18:48.143Z,1038.60524831
2018-12-25T03:20:07.747Z,1038.57138443
2018-12-25T03:20:18.163Z,1038.57138443
2018-12-25T03:20:28.681Z,1038.57138443
2018-12-25T03:20:39.386Z,1038.57138443
2018-12-25T03:20:50.471Z,1038.57138443
2018-12-25T03:21:02.350Z,1038.53752055
2018-12-25T03:21:15.660Z,1038.53752055
2018-12-25T03:21:32.308Z,1038.53752055
2018-12-25T03:21:55.328Z,1038.53752055
2018-12-25T03:22:31.185Z,1038.67297607
2018-12-25T03:23:32.624Z,1038.60524831
2018-12-25T03:24:42.847Z,1038.67297607
2018-12-25T03:25:53.379Z,1038.63911219
2018-12-25T03:27:03.565Z,1038.67297607
2018-12-25T03:28:14.131Z,1038.63911219
2018-12-25T03:29:24.385Z,1038.63911219
2018-12-25T03:30:34.744Z,1038.63911219
2018-12-25T03:31:45.101Z,1038.70683995
2018-12-25T03:32:55.889Z,1038.60524831
2018-12-25T03:34:06.079Z,1038.63911219
2018-12-25T03:35:16.438Z,1038.60524831
2018-12-25T03:36:27.112Z,1038.63911219
2018-12-25T03:37:37.299Z,1038.63911219
2018-12-25T03:38:47.503Z,1038.67297607
2018-12-25T03:39:57.927Z,1038.63911219
2018-12-25T03:41:08.392Z,1038.50365666
2018-12-25T03:42:18.571Z,1038.50365666
2018-12-25T03:43:28.852Z,1038.57138443
2018-12-25T03:44:39.033Z,1038.50365666
2018-12-25T03:45:49.287Z,1038.50365666
2018-12-25T03:46:59.626Z,1038.50365666
2018-12-25T03:48:09.925Z,1038.57138443
2018-12-25T03:49:20.243Z,1038.57138443
2018-12-25T03:50:30.732Z,1038.53752055
2018-12-25T03:51:41.015Z,1038.50365666
2018-12-25T03:52:51.354Z,1038.50365666
2018-12-25T03:54:01.606Z,1038.57138443
2018-12-25T03:55:11.846Z,1038.57138443
2018-12-25T03:56:22.173Z,1038.46979278
2018-12-25T03:57:32.513Z,1038.53752055
2018-12-25T03:58:42.926Z,1038.53752055
2018-12-25T03:59:53.094Z,1038.46979278
2018-12-25T04:01:03.300Z,1038.53752055
2018-12-25T04:02:13.558Z,1038.50365666
2018-12-25T04:03:23.848Z,1038.57138443
2018-12-25T04:04:34.173Z,1038.46979278
2018-12-25T04:05:44.547Z,1038.46979278
2018-12-25T04:06:54.809Z,1038.40206502
2018-12-25T04:08:05.025Z,1038.40206502
2018-12-25T04:09:15.309Z,1038.46979278
2018-12-25T04:10:25.512Z,1038.4359289
2018-12-25T04:11:35.692Z,1038.30047337
2018-12-25T04:12:46.011Z,1038.40206502
2018-12-25T04:13:56.227Z,1038.40206502
2018-12-25T04:15:06.393Z,1038.40206502
2018-12-25T04:16:16.588Z,1038.36820114
2018-12-25T04:17:26.768Z,1038.30047337
2018-12-25T04:18:37.188Z,1038.36820114
2018-12-25T04:19:47.354Z,1038.40206502
2018-12-25T04:20:57.562Z,1038.36820114
2018-12-25T04:22:07.725Z,1038.30047337
2018-12-25T04:23:18.091Z,1038.23274561
2018-12-25T04:24:28.472Z,1038.36820114
2018-12-25T04:25:38.794Z,1038.40206502
2018-12-25T04:26:49.232Z,1038.36820114
2018-12-25T04:27:59.485Z,1038.33433726
2018-12-25T04:29:09.803Z,1038.40206502
2018-12-25T04:30:20.043Z,1038.33433726
2018-12-25T04:31:30.288Z,1038.40206502
2018-12-25T04:32:40.725Z,1038.4359289
2018-12-25T04:33:50.925Z,1038.46979278
2018-12-25T04:35:01.390Z,1038.40206502
2018-12-25T04:36:11.826Z,1038.36820114
2018-12-25T04:37:22.199Z,1038.30047337
2018-12-25T04:38:32.395Z,1038.40206502
2018-12-25T04:39:42.667Z,1038.4359289
2018-12-25T04:40:52.928Z,1038.36820114
2018-12-25T04:42:03.208Z,1038.40206502
2018-12-25T04:43:13.489Z,1038.40206502
2018-12-25T04:44:23.813Z,1038.46979278
2018-12-25T04:45:34.065Z,1038.40206502
2018-12-25T04:46:44.419Z,1038.46979278
2018-12-25T04:47:54.652Z,1038.40206502
2018-12-25T04:49:04.889Z,1038.4359289
2018-12-25T04:50:15.304Z,1038.46979278
2018-12-25T04:51:25.682Z,1038.50365666
2018-12-25T04:52:35.894Z,1038.50365666
2018-12-25T04:53:46.119Z,1038.40206502
2018-12-25T04:54:56.425Z,1038.53752055
2018-12-25T04:56:06.619Z,1038.50365666
2018-12-25T04:57:16.870Z,1038.4359289
2018-12-25T04:58:27.031Z,1038.57138443
2018-12-25T04:59:37.272Z,1038.53752055
2018-12-25T05:00:47.943Z,1038.50365666
2018-12-25T05:01:58.273Z,1038.53752055
2018-12-25T05:03:08.576Z,1038.53752055
2018-12-25T05:04:18.793Z,1038.53752055
2018-12-25T05:05:29.107Z,1038.50365666
2018-12-25T05:06:39.444Z,1038.53752055
2018-12-25T05:07:49.623Z,1038.46979278
2018-12-25T05:08:59.900Z,1038.50365666
2018-12-25T05:10:10.116Z,1038.53752055
2018-12-25T05:11:20.351Z,1038.60524831
2018-12-25T05:12:30.670Z,1038.60524831
2018-12-25T05:13:41.018Z,1038.57138443
2018-12-25T05:14:51.254Z,1038.57138443
2018-12-25T05:16:01.517Z,1038.46979278
2018-12-25T05:17:11.687Z,1038.46979278
2018-12-25T05:18:21.834Z,1038.53752055
2018-12-25T05:19:32.019Z,1038.57138443
2018-12-25T05:20:45.904Z,1038.60524831
2018-12-25T05:20:56.565Z,1038.60524831
2018-12-25T05:21:07.275Z,1038.53752055
2018-12-25T05:21:17.983Z,1038.53752055
2018-12-25T05:21:28.995Z,1038.53752055
2018-12-25T05:21:40.805Z,1038.53752055
2018-12-25T05:21:54.331Z,1038.53752055
2018-12-25T05:22:10.870Z,1038.57138443
2018-12-25T05:22:33.843Z,1038.57138443
2018-12-25T05:23:09.543Z,1038.60524831
2018-12-25T05:24:10.980Z,1038.57138443
2018-12-25T05:25:21.211Z,1038.57138443
2018-12-25T05:26:31.308Z,1038.57138443
2018-12-25T05:27:41.675Z,1038.57138443
2018-12-25T05:28:52.103Z,1038.50365666
2018-12-25T05:30:02.464Z,1038.63911219
2018-12-25T05:31:12.625Z,1038.63911219
2018-12-25T05:32:22.842Z,1038.70683995
2018-12-25T05:33:33.013Z,1038.67297607
2018-12-25T05:34:43.432Z,1038.63911219
2018-12-25T05:35:53.750Z,1038.74070384
2018-12-25T05:37:04.049Z,1038.67297607
2018-12-25T05:38:14.280Z,1038.63911219
2018-12-25T05:39:24.514Z,1038.8084316
2018-12-25T05:40:34.727Z,1038.74070384
2018-12-25T05:41:45.048Z,1038.77456772
2018-12-25T05:42:55.321Z,1038.77456772
2018-12-25T05:44:05.558Z,1038.70683995
2018-12-25T05:45:15.698Z,1038.67297607
2018-12-25T05:46:25.832Z,1038.67297607
2018-12-25T05:47:36.042Z,1038.67297607
2018-12-25T05:48:46.413Z,1038.74070384
2018-12-25T05:49:56.703Z,1038.70683995
2018-12-25T05:51:06.958Z,1038.70683995
2018-12-25T05:52:17.299Z,1038.74070384
2018-12-25T05:53:27.579Z,1038.8084316
2018-12-25T05:54:37.796Z,1038.70683995
2018-12-25T05:55:48.009Z,1038.70683995
2018-12-25T05:56:58.329Z,1038.74070384
2018-12-25T05:58:08.515Z,1038.57138443
2018-12-25T05:59:18.687Z,1038.63911219
2018-12-25T06:00:28.919Z,1038.74070384
2018-12-25T06:01:39.186Z,1038.67297607
2018-12-25T06:02:49.440Z,1038.63911219
2018-12-25T06:03:59.674Z,1038.63911219
2018-12-25T06:05:09.868Z,1038.63911219
2018-12-25T06:06:20.085Z,1038.63911219
2018-12-25T06:07:30.279Z,1038.70683995
2018-12-25T06:08:42.660Z,1038.60524831
2018-12-25T06:08:53.282Z,1038.60524831
2018-12-25T06:09:03.835Z,1038.74070384
2018-12-25T06:09:14.459Z,1038.74070384
2018-12-25T06:09:25.436Z,1038.74070384
2018-12-25T06:09:37.196Z,1038.74070384
2018-12-25T06:09:50.595Z,1038.74070384
2018-12-25T06:10:07.304Z,1038.63911219
2018-12-25T06:10:30.265Z,1038.63911219
2018-12-25T06:11:06.048Z,1038.74070384
2018-12-25T06:12:07.473Z,1038.67297607
2018-12-25T06:13:17.611Z,1038.70683995
2018-12-25T06:14:27.868Z,1038.70683995
2018-12-25T06:15:38.093Z,1038.70683995
2018-12-25T06:16:48.801Z,1038.63911219
2018-12-25T06:17:58.995Z,1038.63911219
2018-12-25T06:19:09.320Z,1038.70683995
2018-12-25T06:20:19.567Z,1038.67297607
2018-12-25T06:21:29.735Z,1038.67297607
2018-12-25T06:22:39.867Z,1038.67297607
2018-12-25T06:23:50.210Z,1038.60524831
2018-12-25T06:25:00.711Z,1038.50365666
2018-12-25T06:26:11.014Z,1038.74070384
2018-12-25T06:27:21.316Z,1038.67297607
2018-12-25T06:28:31.528Z,1038.74070384
2018-12-25T06:29:41.758Z,1038.67297607
2018-12-25T06:30:51.870Z,1038.63911219
2018-12-25T06:32:02.473Z,1038.63911219
2018-12-25T06:33:12.666Z,1038.63911219
2018-12-25T06:34:22.940Z,1038.74070384
2018-12-25T06:35:33.152Z,1038.70683995
2018-12-25T06:36:43.498Z,1038.67297607
2018-12-25T06:37:53.653Z,1038.63911219
2018-12-25T06:39:03.871Z,1038.60524831
2018-12-25T06:40:14.174Z,1038.57138443
2018-12-25T06:41:24.591Z,1038.57138443
2018-12-25T06:42:34.769Z,1038.4359289
2018-12-25T06:43:44.935Z,1038.50365666
2018-12-25T06:44:55.168Z,1038.46979278
2018-12-25T06:46:05.374Z,1038.30047337
2018-12-25T06:47:16.073Z,1038.33433726
2018-12-25T06:48:26.204Z,1038.26660949
2018-12-25T06:49:36.513Z,1038.33433726
2018-12-25T06:50:46.697Z,1038.40206502
2018-12-25T06:51:57.040Z,1038.4359289
2018-12-25T06:53:07.369Z,1038.40206502
2018-12-25T06:54:17.493Z,1038.33433726
2018-12-25T06:55:27.748Z,1038.33433726
2018-12-25T06:56:38.017Z,1038.40206502
2018-12-25T06:57:48.313Z,1038.40206502
2018-12-25T06:58:58.510Z,1038.50365666
2018-12-25T07:00:10.541Z,1038.46979278
2018-12-25T07:00:21.143Z,1038.46979278
2018-12-25T07:00:31.742Z,1038.46979278
2018-12-25T07:00:42.367Z,1038.46979278
2018-12-25T07:00:53.501Z,1038.46979278
2018-12-25T07:01:05.285Z,1038.50365666
2018-12-25T07:01:18.778Z,1038.50365666
2018-12-25T07:01:35.503Z,1038.50365666
2018-12-25T07:01:58.507Z,1038.50365666
2018-12-25T07:02:34.389Z,1038.30047337
2018-12-25T07:03:35.790Z,1038.33433726
2018-12-25T07:04:46.163Z,1038.30047337
2018-12-25T07:05:57.020Z,1038.26660949
2018-12-25T07:07:07.204Z,1038.13115397
2018-12-25T07:08:17.486Z,1038.23274561
2018-12-25T07:09:27.838Z,1038.30047337
2018-12-25T07:10:38.032Z,1038.23274561
2018-12-25T07:11:48.273Z,1038.19888173
2018-12-25T07:12:58.440Z,1038.23274561
2018-12-25T07:14:08.718Z,1038.19888173
2018-12-25T07:15:18.938Z,1038.16501785
2018-12-25T07:16:29.225Z,1038.19888173
2018-12-25T07:17:39.424Z,1037.99569844
2018-12-25T07:18:49.609Z,1038.16501785
2018-12-25T07:19:59.881Z,1038.13115397
2018-12-25T07:21:17.735Z,1038.16501785
2018-12-25T07:21:28.348Z,1038.16501785
2018-12-25T07:21:39.126Z,1038.16501785
2018-12-25T07:21:49.706Z,1038.16501785
2018-12-25T07:22:00.920Z,1038.16501785
2018-12-25T07:22:12.752Z,1038.0634262
2018-12-25T07:22:26.150Z,1038.0634262
2018-12-25T07:22:42.749Z,1038.0634262
2018-12-25T07:23:05.837Z,1038.0634262
2018-12-25T07:23:41.731Z,1038.0634262
2018-12-25T07:24:43.171Z,1038.02956232
2018-12-25T07:25:53.422Z,1038.02956232
2018-12-25T07:27:03.681Z,1038.13115397
2018-12-25T07:28:14.269Z,1037.99569844
2018-12-25T07:29:24.591Z,1037.99569844
2018-12-25T07:30:34.671Z,1037.92797068
2018-12-25T07:31:44.885Z,1037.92797068
2018-12-25T07:32:55.018Z,1037.99569844
2018-12-25T07:34:05.174Z,1037.92797068
2018-12-25T07:35:15.423Z,1037.99569844
2018-12-25T07:36:25.907Z,1037.8941068
2018-12-25T07:37:36.145Z,1037.92797068
2018-12-25T07:38:46.360Z,1037.8941068
2018-12-25T07:39:56.733Z,1037.92797068
2018-12-25T07:41:06.984Z,1037.8941068
2018-12-25T07:42:17.139Z,1037.8941068
2018-12-25T07:43:27.305Z,1037.96183456
2018-12-25T07:44:37.569Z,1037.82637903
2018-12-25T07:45:47.936Z,1037.86024291
2018-12-25T07:46:58.235Z,1037.82637903
2018-12-25T07:48:08.428Z,1037.79251515
2018-12-25T07:49:18.755Z,1037.79251515
2018-12-25T07:50:29.182Z,1037.79251515
2018-12-25T07:51:39.396Z,1037.82637903
2018-12-25T07:52:49.656Z,1037.8941068
2018-12-25T07:53:59.815Z,1037.92797068
2018-12-25T07:55:10.198Z,1037.99569844
2018-12-25T07:56:20.453Z,1037.92797068
2018-12-25T07:57:30.766Z,1037.92797068
2018-12-25T07:58:41.031Z,1037.92797068
2018-12-25T07:59:51.262Z,1037.82637903
2018-12-25T08:01:01.507Z,1037.82637903
2018-12-25T08:02:11.874Z,1037.92797068
2018-12-25T08:03:22.074Z,1037.96183456
2018-12-25T08:04:32.294Z,1038.02956232
2018-12-25T08:05:42.765Z,1037.96183456
2018-12-25T08:06:53.028Z,1037.96183456
2018-12-25T08:08:03.219Z,1037.96183456
2018-12-25T08:09:13.488Z,1038.13115397
2018-12-25T08:10:23.697Z,1037.96183456
2018-12-25T08:11:33.871Z,1038.16501785
2018-12-25T08:12:44.099Z,1038.13115397
2018-12-25T08:13:54.286Z,1037.96183456
2018-12-25T08:15:04.858Z,1037.99569844
2018-12-25T08:16:15.039Z,1038.16501785
2018-12-25T08:17:25.194Z,1038.16501785
2018-12-25T08:18:35.573Z,1038.13115397
2018-12-25T08:19:46.009Z,1038.19888173
2018-12-25T08:20:56.289Z,1038.16501785
2018-12-25T08:22:06.450Z,1038.09729009
2018-12-25T08:23:16.779Z,1038.19888173
2018-12-25T08:24:27.031Z,1038.16501785
2018-12-25T08:25:37.301Z,1038.09729009
2018-12-25T08:26:47.641Z,1038.13115397
2018-12-25T08:27:58.014Z,1038.16501785
2018-12-25T08:29:08.324Z,1038.13115397
2018-12-25T08:30:18.567Z,1038.19888173
2018-12-25T08:31:28.750Z,1038.09729009
2018-12-25T08:32:38.874Z,1038.13115397
2018-12-25T08:33:49.117Z,1038.23274561
2018-12-25T08:34:59.429Z,1038.19888173
2018-12-25T08:36:09.731Z,1038.23274561
2018-12-25T08:37:20.128Z,1038.09729009
2018-12-25T08:38:30.296Z,1038.09729009
2018-12-25T08:39:40.783Z,1038.09729009
2018-12-25T08:40:50.964Z,1038.19888173
2018-12-25T08:42:01.165Z,1038.09729009
2018-12-25T08:43:11.404Z,1037.96183456
2018-12-25T08:44:21.659Z,1038.02956232
2018-12-25T08:45:31.817Z,1038.09729009
2018-12-25T08:46:42.037Z,1038.13115397
2018-12-25T08:47:52.242Z,1038.19888173
2018-12-25T08:49:02.492Z,1038.09729009
2018-12-25T08:50:12.885Z,1038.09729009
2018-12-25T08:51:23.193Z,1038.0634262
2018-12-25T08:52:33.521Z,1038.13115397
2018-12-25T08:53:43.655Z,1037.96183456
2018-12-25T08:54:53.783Z,1037.96183456
2018-12-25T08:56:04.148Z,1037.99569844
2018-12-25T08:57:14.430Z,1037.96183456
2018-12-25T08:58:24.719Z,1038.0634262
2018-12-25T08:59:35.948Z,1038.0634262
2018-12-25T09:00:46.210Z,1038.09729009
2018-12-25T09:01:56.582Z,1038.09729009
2018-12-25T09:03:06.832Z,1038.19888173
2018-12-25T09:04:17.056Z,1038.16501785
2018-12-25T09:05:27.317Z,1038.16501785
2018-12-25T09:06:37.470Z,1038.16501785
2018-12-25T09:07:47.615Z,1038.19888173
2018-12-25T09:08:57.911Z,1038.26660949
2018-12-25T09:10:08.229Z,1038.23274561
2018-12-25T09:11:18.399Z,1038.23274561
2018-12-25T09:12:28.663Z,1038.30047337
2018-12-25T09:13:38.913Z,1038.19888173
2018-12-25T09:14:49.166Z,1038.16501785
2018-12-25T09:15:59.348Z,1038.23274561
2018-12-25T09:17:09.534Z,1038.19888173
2018-12-25T09:18:21.067Z,1038.19888173
2018-12-25T09:18:31.624Z,1038.19888173
2018-12-25T09:18:42.125Z,1038.19888173
2018-12-25T09:18:52.763Z,1038.19888173
2018-12-25T09:19:03.735Z,1038.19888173
2018-12-25T09:19:15.595Z,1038.19888173
2018-12-25T09:19:28.932Z,1038.19888173
2018-12-25T09:19:45.417Z,1038.19888173
2018-12-25T09:20:08.369Z,1038.23274561
2018-12-25T09:20:44.275Z,1038.23274561
2018-12-25T09:21:54.142Z,1038.26660949
2018-12-25T09:22:04.846Z,1038.40206502
2018-12-25T09:22:15.474Z,1038.40206502
2018-12-25T09:22:26.213Z,1038.40206502
2018-12-25T09:22:37.137Z,1038.40206502
2018-12-25T09:22:49.095Z,1038.40206502
2018-12-25T09:23:02.594Z,1038.26660949
2018-12-25T09:23:19.450Z,1038.26660949
2018-12-25T09:23:42.481Z,1038.26660949
2018-12-25T09:24:18.473Z,1038.26660949
2018-12-25T09:25:19.958Z,1038.19888173
2018-12-25T09:26:30.277Z,1038.19888173
2018-12-25T09:27:40.563Z,1038.26660949
2018-12-25T09:28:50.907Z,1038.19888173
2018-12-25T09:30:01.124Z,1038.13115397
2018-12-25T09:31:11.429Z,1038.19888173
2018-12-25T09:32:21.772Z,1037.99569844
2018-12-25T09:33:32.010Z,1038.0634262
2018-12-25T09:34:42.309Z,1038.16501785
2018-12-25T09:35:52.658Z,1038.02956232
2018-12-25T09:37:02.891Z,1038.13115397
2018-12-25T09:38:13.121Z,1038.09729009
2018-12-25T09:39:23.287Z,1038.19888173
2018-12-25T09:40:33.639Z,1038.19888173
2018-12-25T09:41:43.900Z,1038.13115397
2018-12-25T09:42:54.082Z,1038.0634262
2018-12-25T09:44:04.246Z,1038.09729009
2018-12-25T09:45:14.571Z,1038.19888173
2018-12-25T09:46:24.843Z,1038.19888173
2018-12-25T09:47:35.323Z,1038.23274561
2018-12-25T09:48:45.509Z,1038.13115397
2018-12-25T09:49:55.665Z,1038.09729009
2018-12-25T09:51:06.123Z,1038.09729009
2018-12-25T09:52:16.700Z,1038.09729009
2018-12-25T09:53:26.944Z,1037.99569844
2018-12-25T09:54:37.127Z,1038.09729009
2018-12-25T09:55:47.402Z,1038.09729009
2018-12-25T09:56:57.760Z,1037.99569844
2018-12-25T09:58:08.007Z,1038.09729009
2018-12-25T09:59:18.193Z,1037.99569844
2018-12-25T10:00:28.510Z,1038.0634262
2018-12-25T10:01:38.885Z,1038.0634262
2018-12-25T10:02:49.237Z,1038.02956232
2018-12-25T10:03:59.540Z,1037.99569844
2018-12-25T10:05:09.936Z,1038.02956232
2018-12-25T10:06:20.329Z,1038.09729009
2018-12-25T10:07:31.257Z,1037.99569844
2018-12-25T10:08:41.642Z,1038.09729009
2018-12-25T10:09:51.890Z,1038.16501785
2018-12-25T10:11:02.383Z,1038.13115397
2018-12-25T10:12:12.603Z,1038.26660949
2018-12-25T10:13:23.004Z,1038.13115397
2018-12-25T10:14:33.322Z,1038.13115397
2018-12-25T10:15:43.596Z,1038.0634262
2018-12-25T10:16:55.582Z,1038.16501785
2018-12-25T10:17:06.255Z,1038.0634262
2018-12-25T10:17:16.851Z,1038.0634262
2018-12-25T10:17:27.548Z,1038.0634262
2018-12-25T10:17:38.571Z,1038.0634262
2018-12-25T10:17:50.470Z,1038.0634262
2018-12-25T10:18:05.426Z,1038.09729009
2018-12-25T10:18:16.017Z,1038.09729009
2018-12-25T10:18:26.648Z,1038.09729009
2018-12-25T10:18:37.207Z,1038.09729009
2018-12-25T10:18:48.149Z,1038.09729009
2018-12-25T10:18:59.953Z,1038.09729009
2018-12-25T10:19:13.444Z,1038.13115397
2018-12-25T10:19:30.084Z,1038.13115397
2018-12-25T10:19:53.324Z,1038.13115397
2018-12-25T10:20:30.543Z,1038.09729009
2018-12-25T10:20:41.014Z,1038.09729009
2018-12-25T10:20:51.665Z,1038.09729009
2018-12-25T10:21:02.334Z,1038.23274561
2018-12-25T10:21:13.363Z,1038.23274561
2018-12-25T10:21:25.144Z,1038.23274561
2018-12-25T10:21:38.562Z,1038.23274561
2018-12-25T10:22:02.719Z,1038.23274561
2018-12-25T10:22:13.415Z,1038.13115397
2018-12-25T10:22:24.005Z,1038.13115397
2018-12-25T10:22:34.616Z,1038.13115397
2018-12-25T10:22:45.674Z,1038.13115397